createdAt,value
2017-11-01T04:31:23.518Z,7.53
2017-11-01T04:33:51.202Z,7.18
2017-11-01T04:36:19.550Z,8.77
2017-11-01T04:38:47.177Z,9.70
2017-11-01T04:41:14.754Z,8.00
2017-11-01T04:43:42.330Z,9.93
2017-11-01T04:46:10.015Z,8.90
2017-11-01T04:48:38.450Z,8.48
2017-11-01T04:51:10.958Z,9.38
2017-11-01T04:53:38.542Z,7.78
2017-11-01T04:56:06.118Z,8.18
2017-11-01T04:58:36.778Z,7.97
2017-11-01T05:01:04.379Z,7.97
2017-11-01T05:03:32.717Z,9.43
2017-11-01T05:06:00.412Z,8.75
2017-11-01T05:08:34.481Z,8.07
2017-11-01T05:11:07.802Z,8.77
2017-11-01T05:13:35.387Z,9.25
2017-11-01T05:16:03.768Z,8.77
2017-11-01T05:18:31.417Z,9.30
2017-11-01T05:20:59.753Z,8.20
2017-11-01T05:23:27.348Z,8.38
2017-11-01T05:25:55.732Z,7.75
2017-11-01T05:28:24.073Z,8.05
2017-11-01T05:30:51.766Z,8.95
2017-11-01T05:33:20.142Z,9.43
2017-11-01T05:35:48.518Z,8.00
2017-11-01T05:38:16.861Z,9.52
2017-11-01T05:40:44.478Z,8.18
2017-11-01T05:43:12.113Z,10.68
2017-11-01T05:45:40.466Z,9.15
2017-11-01T05:48:08.154Z,9.90
2017-11-01T05:50:36.497Z,9.73
2017-11-01T05:53:04.078Z,10.40
2017-11-01T05:55:31.702Z,9.15
2017-11-01T05:57:59.285Z,10.52
2017-11-01T06:00:26.966Z,9.88
2017-11-01T06:02:55.367Z,9.50
2017-11-01T06:05:23.002Z,10.40
2017-11-01T06:07:51.352Z,10.30
2017-11-01T06:10:19.046Z,10.82
2017-11-01T06:12:47.418Z,11.80
2017-11-01T06:15:15.798Z,10.57
2017-11-01T06:17:44.145Z,10.68
2017-11-01T06:20:11.725Z,12.13
2017-11-01T06:22:39.354Z,11.18
2017-11-01T06:25:06.934Z,12.23
2017-11-01T06:27:34.609Z,11.18
2017-11-01T06:30:03.042Z,11.93
2017-11-01T06:32:30.621Z,12.27
2017-11-01T06:34:58.312Z,12.70
2017-11-01T06:37:26.710Z,12.13
2017-11-01T06:39:54.298Z,10.80
2017-11-01T06:42:21.877Z,10.10
2017-11-01T06:44:49.477Z,12.20
2017-11-01T06:47:17.817Z,11.52
2017-11-01T06:49:45.449Z,12.15
2017-11-01T06:52:13.032Z,11.73
2017-11-01T06:54:40.621Z,13.35
2017-11-01T06:57:09.024Z,13.73
2017-11-01T06:59:36.618Z,13.07
2017-11-01T07:02:04.264Z,11.27
2017-11-01T07:04:31.865Z,14.52
2017-11-01T07:07:00.278Z,13.00
2017-11-01T07:09:27.863Z,12.20
2017-11-01T07:11:55.509Z,13.45
2017-11-01T07:14:23.130Z,12.32
2017-11-01T07:16:51.510Z,13.82
2017-11-01T07:19:19.906Z,13.05
2017-11-01T07:21:47.494Z,13.20
2017-11-01T07:24:15.081Z,13.57
2017-11-01T07:26:42.690Z,14.35
2017-11-01T07:29:10.274Z,15.15
2017-11-01T07:31:37.886Z,14.15
2017-11-01T07:34:06.254Z,14.30
2017-11-01T07:36:34.638Z,16.65
2017-11-01T07:39:02.989Z,16.23
2017-11-01T07:41:31.522Z,14.77
2017-11-01T07:43:59.102Z,13.68
2017-11-01T07:46:26.682Z,15.52
2017-11-01T07:48:54.286Z,15.60
2017-11-01T07:51:21.898Z,13.70
2017-11-01T07:53:49.491Z,13.75
2017-11-01T07:56:17.887Z,13.07
2017-11-01T07:58:45.461Z,14.15
2017-11-01T08:01:13.132Z,13.98
2017-11-01T08:03:40.774Z,13.98
2017-11-01T08:06:08.362Z,13.30
2017-11-01T08:08:35.942Z,16.58
2017-11-01T08:11:03.549Z,15.43
2017-11-01T08:13:31.128Z,14.65
2017-11-01T08:15:58.745Z,14.77
2017-11-01T08:18:27.101Z,15.38
2017-11-01T08:20:54.677Z,14.35
2017-11-01T08:23:23.070Z,14.63
2017-11-01T08:25:50.650Z,14.93
2017-11-01T08:28:18.234Z,13.65
2017-11-01T08:30:45.862Z,14.02
2017-11-01T08:33:13.443Z,15.43
2017-11-01T08:35:41.026Z,13.52
2017-11-01T08:38:08.658Z,13.32
2017-11-01T08:40:36.234Z,12.77
2017-11-01T08:43:03.813Z,13.15
2017-11-01T08:45:31.450Z,13.85
2017-11-01T08:47:59.030Z,13.43
2017-11-01T08:50:26.613Z,12.05
2017-11-01T08:52:54.218Z,12.27
2017-11-01T08:55:21.854Z,12.95
2017-11-01T08:57:49.438Z,12.32
2017-11-01T09:00:17.023Z,13.32
2017-11-01T09:02:44.657Z,12.48
2017-11-01T09:05:12.233Z,14.73
2017-11-01T09:07:39.926Z,12.57
2017-11-01T09:10:08.322Z,11.77
2017-11-01T09:12:35.902Z,12.70
2017-11-01T09:15:03.486Z,14.23
2017-11-01T09:17:31.105Z,13.05
2017-11-01T09:19:58.694Z,12.77
2017-11-01T09:22:26.274Z,13.62
2017-11-01T09:24:53.877Z,14.65
2017-11-01T09:27:21.454Z,14.60
2017-11-01T09:29:49.066Z,13.85
2017-11-01T09:32:17.414Z,15.65
2017-11-01T09:34:44.998Z,15.43
2017-11-01T09:37:13.369Z,14.45
2017-11-01T09:39:41.718Z,15.07
2017-11-01T09:42:09.343Z,15.70
2017-11-01T09:44:36.927Z,15.55
2017-11-01T09:47:04.501Z,17.12
2017-11-01T09:49:32.147Z,17.98
2017-11-01T09:51:59.733Z,16.95
2017-11-01T09:54:27.313Z,16.90
2017-11-01T09:56:55.714Z,18.02
2017-11-01T09:59:23.294Z,17.60
2017-11-01T10:01:50.883Z,16.35
2017-11-01T10:04:18.498Z,16.70
2017-11-01T10:06:46.078Z,19.05
2017-11-01T10:09:13.662Z,17.92
2017-11-01T10:11:41.269Z,18.67
2017-11-01T10:14:08.846Z,19.98
2017-11-01T10:16:36.463Z,18.80
2017-11-01T10:19:04.818Z,19.98
2017-11-01T10:21:32.401Z,18.37
2017-11-01T10:24:00.794Z,16.70
2017-11-01T10:26:28.373Z,19.30
2017-11-01T10:28:55.954Z,19.17
2017-11-01T10:31:23.584Z,18.02
2017-11-01T10:33:51.168Z,18.00
2017-11-01T10:36:18.755Z,17.75
2017-11-01T10:38:47.158Z,19.00
2017-11-01T10:41:14.742Z,18.52
2017-11-01T10:43:42.323Z,20.05
2017-11-01T10:46:09.926Z,22.00
2017-11-01T10:48:38.271Z,19.40
2017-11-01T10:51:05.918Z,23.98
2017-11-01T10:53:33.507Z,22.73
2017-11-01T10:56:01.106Z,21.65
2017-11-01T10:58:28.751Z,22.25
2017-11-01T11:00:56.330Z,20.90
2017-11-01T11:03:23.917Z,22.48
2017-11-01T11:05:51.524Z,21.73
2017-11-01T11:08:19.129Z,24.48
2017-11-01T11:10:46.719Z,25.20
2017-11-01T11:13:15.114Z,24.52
2017-11-01T11:15:43.469Z,26.15
2017-11-01T11:18:11.907Z,24.85
2017-11-01T11:20:39.527Z,24.52
2017-11-01T11:23:07.873Z,24.30
2017-11-01T11:25:35.462Z,26.25
2017-11-01T11:28:03.882Z,22.35
2017-11-01T11:30:31.466Z,22.73
2017-11-01T11:32:59.051Z,22.08
2017-11-01T11:35:27.426Z,19.23
2017-11-01T11:37:55.774Z,21.60
2017-11-01T11:40:23.349Z,20.70
2017-11-01T11:42:50.968Z,21.00
2017-11-01T11:45:18.551Z,20.62
2017-11-01T11:47:46.138Z,20.48
2017-11-01T11:50:14.530Z,22.83
2017-11-01T11:52:42.105Z,22.80
2017-11-01T11:55:09.683Z,23.75
2017-11-01T11:57:37.322Z,21.70
2017-11-01T12:00:04.902Z,23.05
2017-11-01T12:02:32.487Z,19.90
2017-11-01T12:05:00.130Z,22.25
2017-11-01T12:07:27.722Z,20.35
2017-11-01T12:09:56.074Z,19.98
2017-11-01T12:12:23.710Z,18.65
2017-11-01T12:14:51.295Z,19.45
2017-11-01T12:17:18.933Z,20.83
2017-11-01T12:19:47.345Z,18.77
2017-11-01T12:22:14.925Z,19.90
2017-11-01T12:24:43.271Z,18.27
2017-11-01T12:27:10.910Z,19.62
2017-11-01T12:29:38.506Z,19.42
2017-11-01T12:32:06.087Z,18.52
2017-11-01T12:34:33.718Z,18.35
2017-11-01T12:37:01.293Z,19.10
2017-11-01T12:39:29.642Z,18.55
2017-11-01T12:41:57.251Z,18.70
2017-11-01T12:44:24.838Z,19.55
2017-11-01T12:46:52.417Z,19.25
2017-11-01T12:49:20.056Z,19.25
2017-11-01T12:51:47.637Z,19.75
2017-11-01T12:54:15.233Z,20.37
2017-11-01T12:56:43.609Z,21.45
2017-11-01T12:59:11.975Z,20.23
2017-11-01T13:01:40.318Z,20.65
2017-11-01T13:04:07.979Z,21.10
2017-11-01T13:06:35.554Z,21.35
2017-11-01T13:09:03.138Z,19.90
2017-11-01T13:11:31.588Z,21.80
2017-11-01T13:13:59.186Z,20.23
2017-11-01T13:16:26.778Z,21.50
2017-11-01T13:18:54.398Z,18.23
2017-11-01T13:21:22.821Z,21.77
2017-11-01T13:23:50.475Z,21.40
2017-11-01T13:26:18.086Z,19.52
2017-11-01T13:28:46.635Z,18.27
2017-11-01T13:31:14.233Z,20.70
2017-11-01T13:33:42.578Z,19.48
2017-11-01T13:36:10.154Z,19.35
2017-11-01T13:38:37.772Z,18.12
2017-11-01T13:41:05.359Z,18.42
2017-11-01T13:43:32.942Z,19.85
2017-11-01T13:46:01.338Z,19.45
2017-11-01T13:48:28.921Z,19.83
2017-11-01T13:50:56.526Z,19.42
2017-11-01T13:53:24.921Z,19.98
2017-11-01T13:55:53.269Z,18.23
2017-11-01T13:58:20.846Z,19.30
2017-11-01T14:00:49.254Z,17.30
2017-11-01T14:03:16.840Z,20.33
2017-11-01T14:05:44.414Z,19.98
2017-11-01T14:08:12.021Z,19.73
2017-11-01T14:10:39.602Z,21.80
2017-11-01T14:13:07.235Z,20.65
2017-11-01T14:15:34.823Z,19.95
2017-11-01T14:18:02.399Z,18.65
2017-11-01T14:20:30.026Z,19.05
2017-11-01T14:22:57.610Z,20.05
2017-11-01T14:25:25.193Z,19.42
2017-11-01T14:27:52.793Z,20.08
2017-11-01T14:30:20.374Z,19.08
2017-11-01T14:32:48.009Z,18.85
2017-11-01T14:35:15.596Z,18.62
2017-11-01T14:37:43.179Z,19.23
2017-11-01T14:40:10.807Z,18.27
2017-11-01T14:42:38.381Z,18.65
2017-11-01T14:45:05.962Z,20.10
2017-11-01T14:47:33.574Z,19.45
2017-11-01T14:50:01.155Z,20.50
2017-11-01T14:52:29.511Z,17.58
2017-11-01T14:54:57.180Z,19.62
2017-11-01T14:57:24.761Z,18.20
2017-11-01T14:59:52.342Z,19.80
2017-11-01T15:02:19.943Z,20.15
2017-11-01T15:04:47.532Z,20.02
2017-11-01T15:07:15.120Z,20.90
2017-11-01T15:09:42.746Z,21.87
2017-11-01T15:12:10.327Z,20.23
2017-11-01T15:14:37.922Z,20.62
2017-11-01T15:17:06.296Z,20.27
2017-11-01T15:19:34.641Z,22.00
2017-11-01T15:22:02.221Z,19.70
2017-11-01T15:24:30.638Z,20.60
2017-11-01T15:26:58.227Z,20.10
2017-11-01T15:29:25.811Z,21.05
2017-11-01T15:31:53.437Z,22.17
2017-11-01T15:34:21.018Z,21.85
2017-11-01T15:36:48.598Z,22.23
2017-11-01T15:39:16.994Z,21.90
2017-11-01T15:41:53.465Z,22.90
2017-11-01T15:44:21.101Z,22.42
2017-11-01T15:46:49.447Z,21.17
2017-11-01T15:49:17.036Z,22.70
2017-11-01T15:51:45.429Z,20.30
2017-11-01T15:54:13.009Z,21.60
2017-11-01T15:56:40.595Z,21.70
2017-11-01T15:59:08.229Z,23.27
2017-11-01T16:01:35.823Z,21.23
2017-11-01T16:04:03.411Z,22.77
2017-11-01T16:06:31.798Z,23.92
2017-11-01T16:09:00.147Z,24.42
2017-11-01T16:11:27.740Z,22.58
2017-11-01T16:13:55.535Z,21.80
2017-11-01T16:16:23.138Z,23.77
2017-11-01T16:18:51.495Z,27.92
2017-11-01T16:21:19.129Z,28.08
2017-11-01T16:23:46.701Z,24.55
2017-11-01T16:26:14.282Z,24.75
2017-11-01T16:28:42.011Z,25.37
2017-11-01T16:31:09.590Z,27.80
2017-11-01T16:33:37.171Z,24.92
2017-11-01T16:36:05.572Z,25.62
2017-11-01T16:38:33.158Z,26.58
2017-11-01T16:41:00.746Z,27.50
2017-11-01T16:43:28.847Z,25.00
2017-11-01T16:45:57.206Z,25.88
2017-11-01T16:48:24.790Z,27.37
2017-11-01T16:50:53.206Z,26.33
2017-11-01T16:53:20.782Z,26.73
2017-11-01T16:55:48.361Z,22.33
2017-11-01T16:58:15.987Z,25.35
2017-11-01T17:00:43.667Z,27.73
2017-11-01T17:03:11.330Z,24.73
2017-11-01T17:05:39.046Z,24.65
2017-11-01T17:08:06.622Z,24.77
2017-11-01T17:10:34.222Z,25.20
2017-11-01T17:13:01.848Z,25.58
2017-11-01T17:15:29.434Z,25.95
2017-11-01T17:17:57.059Z,24.75
2017-11-01T17:20:24.640Z,26.08
2017-11-01T17:22:52.233Z,24.27
2017-11-01T17:25:20.623Z,25.02
2017-11-01T17:27:48.214Z,23.05
2017-11-01T17:30:15.800Z,24.52
2017-11-01T17:32:43.506Z,22.98
2017-11-01T17:35:11.108Z,23.60
2017-11-01T17:37:40.217Z,23.65
2017-11-01T17:40:07.842Z,22.92
2017-11-01T17:42:35.432Z,23.42
2017-11-01T17:45:03.029Z,26.10
2017-11-01T17:47:31.442Z,24.55
2017-11-01T17:49:59.022Z,24.00
2017-11-01T17:52:26.605Z,23.65
2017-11-01T17:54:54.234Z,24.48
2017-11-01T17:57:21.818Z,24.77
2017-11-01T17:59:49.398Z,23.17
2017-11-01T18:02:17.798Z,24.20
2017-11-01T18:04:45.375Z,23.95
2017-11-01T18:07:12.962Z,25.20
2017-11-01T18:09:40.590Z,25.40
2017-11-01T18:12:08.168Z,26.23
2017-11-01T18:14:35.747Z,25.17
2017-11-01T18:17:03.361Z,24.12
2017-11-01T18:19:30.946Z,27.52
2017-11-01T18:21:58.528Z,24.33
2017-11-01T18:24:26.151Z,23.67
2017-11-01T18:26:53.739Z,26.67
2017-11-01T18:29:21.314Z,26.02
2017-11-01T18:31:49.686Z,24.70
2017-11-01T18:34:17.266Z,25.67
2017-11-01T18:36:44.922Z,24.98
2017-11-01T18:39:13.274Z,25.33
2017-11-01T18:41:40.862Z,24.50
2017-11-01T18:44:08.486Z,26.12
2017-11-01T18:46:36.070Z,24.92
2017-11-01T18:49:04.414Z,24.37
2017-11-01T18:51:32.032Z,23.80
2017-11-01T18:53:59.623Z,24.25
2017-11-01T18:56:27.202Z,25.85
2017-11-01T18:58:54.838Z,25.23
2017-11-01T19:01:22.422Z,24.05
2017-11-01T19:03:50.003Z,25.17
2017-11-01T19:06:18.402Z,26.60
2017-11-01T19:08:45.987Z,32.88
2017-11-01T19:11:13.571Z,33.53
2017-11-01T19:13:41.203Z,33.33
2017-11-01T19:16:08.801Z,27.75
2017-11-01T19:18:36.384Z,27.87
2017-11-01T19:21:04.007Z,24.85
2017-11-01T19:23:31.594Z,22.87
2017-11-01T19:26:00.017Z,23.12
2017-11-01T19:28:27.626Z,24.17
2017-11-01T19:30:55.975Z,23.70
2017-11-01T19:33:23.587Z,24.25
2017-11-01T19:35:51.168Z,21.60
2017-11-01T19:38:18.753Z,23.48
2017-11-01T19:40:46.397Z,21.55
2017-11-01T19:43:13.977Z,24.08
2017-11-01T19:45:41.562Z,23.23
2017-11-01T19:48:09.932Z,20.23
2017-11-01T19:50:38.281Z,23.65
2017-11-01T19:53:05.922Z,23.77
2017-11-01T19:55:33.505Z,22.20
2017-11-01T19:58:01.102Z,21.90
2017-11-01T20:00:28.709Z,22.27
2017-11-01T20:02:56.285Z,21.75
2017-11-01T20:05:23.866Z,23.65
2017-11-01T20:07:52.283Z,21.00
2017-11-01T20:10:19.874Z,22.15
2017-11-01T20:12:47.451Z,21.85
2017-11-01T20:15:15.073Z,22.08
2017-11-01T20:17:42.662Z,23.15
2017-11-01T20:20:10.297Z,25.02
2017-11-01T20:22:38.695Z,23.17
2017-11-01T20:25:06.279Z,24.08
2017-11-01T20:27:34.628Z,24.55
2017-11-01T20:30:02.239Z,23.20
2017-11-01T20:32:29.827Z,22.98
2017-11-01T20:34:57.410Z,23.98
2017-11-01T20:37:25.075Z,22.20
2017-11-01T20:39:52.662Z,20.55
2017-11-01T20:42:20.295Z,19.30
2017-11-01T20:44:47.881Z,19.80
2017-11-01T20:47:15.471Z,18.67
2017-11-01T20:49:43.077Z,21.87
2017-11-01T20:52:11.425Z,22.40
2017-11-01T20:54:39.774Z,20.40
2017-11-01T20:57:07.401Z,21.08
2017-11-01T20:59:35.751Z,23.35
2017-11-01T21:02:03.338Z,23.87
2017-11-01T21:04:31.706Z,21.60
2017-11-01T21:07:00.056Z,22.27
2017-11-01T21:09:27.701Z,23.35
2017-11-01T21:11:55.278Z,22.05
2017-11-01T21:14:22.860Z,24.17
2017-11-01T21:16:51.266Z,23.23
2017-11-01T21:19:18.846Z,23.02
2017-11-01T21:21:46.421Z,20.75
2017-11-01T21:24:14.027Z,19.90
2017-11-01T21:26:42.374Z,23.00
2017-11-01T21:29:10.002Z,20.80
2017-11-01T21:31:37.578Z,21.35
2017-11-01T21:34:05.162Z,18.90
2017-11-01T21:36:32.798Z,20.08
2017-11-01T21:39:00.373Z,19.37
2017-11-01T21:41:27.953Z,20.80
2017-11-01T21:43:56.355Z,18.90
2017-11-01T21:46:23.931Z,19.17
2017-11-01T21:48:51.510Z,22.20
2017-11-01T21:51:19.137Z,20.10
2017-11-01T21:53:46.717Z,17.87
2017-11-01T21:56:14.298Z,19.75
2017-11-01T21:58:41.954Z,19.05
2017-11-01T22:01:09.534Z,18.58
2017-11-01T22:03:37.887Z,17.83
2017-11-01T22:06:05.530Z,18.40
2017-11-01T22:08:33.110Z,18.25
2017-11-01T22:11:00.690Z,19.45
2017-11-01T22:13:29.078Z,18.37
2017-11-01T22:15:56.670Z,16.83
2017-11-01T22:18:24.251Z,17.55
2017-11-01T22:20:51.866Z,16.48
2017-11-01T22:23:19.445Z,16.60
2017-11-01T22:25:47.027Z,23.62
2017-11-01T22:28:14.646Z,20.45
2017-11-01T22:30:42.226Z,21.60
2017-11-01T22:33:09.802Z,18.80
2017-11-01T22:35:38.182Z,18.33
2017-11-01T22:38:05.762Z,17.50
2017-11-01T22:40:33.342Z,18.70
2017-11-01T22:43:01.737Z,16.08
2017-11-01T22:45:29.319Z,16.02
2017-11-01T22:47:56.904Z,16.00
2017-11-01T22:50:24.514Z,17.83
2017-11-01T22:52:52.095Z,15.27
2017-11-01T22:55:19.674Z,16.17
2017-11-01T22:57:47.302Z,15.10
2017-11-01T23:00:14.886Z,15.82
2017-11-01T23:02:42.461Z,14.98
2017-11-01T23:05:10.098Z,15.75
2017-11-01T23:07:37.679Z,16.70
2017-11-01T23:10:05.262Z,13.95
2017-11-01T23:12:33.630Z,15.50
2017-11-01T23:15:01.210Z,15.10
2017-11-01T23:17:28.786Z,13.05
2017-11-01T23:19:56.434Z,12.82
2017-11-01T23:22:24.018Z,11.77
2017-11-01T23:24:51.603Z,12.88
2017-11-01T23:27:19.206Z,12.00
2017-11-01T23:29:46.781Z,11.43
